sensor_id;sensor_type;location;lat;lon;timestamp;temperature;humidity
61253;DHT22;47127;47.516;8.596;2023-01-29T00:00:33;1.80;99.90
61253;DHT22;47127;47.516;8.596;2023-01-29T00:02:58;1.80;99.90
61253;DHT22;47127;47.516;8.596;2023-01-29T00:05:24;1.80;99.90
61253;DHT22;47127;47.516;8.596;2023-01-29T00:07:49;1.80;99.90
61253;DHT22;47127;47.516;8.596;2023-01-29T00:10:15;1.80;99.90
61253;DHT22;47127;47.516;8.596;2023-01-29T00:12:41;1.80;99.90
61253;DHT22;47127;47.516;8.596;2023-01-29T00:15:06;1.80;99.90
61253;DHT22;47127;47.516;8.596;2023-01-29T00:17:32;1.80;99.90
61253;DHT22;47127;47.516;8.596;2023-01-29T00:19:58;1.80;99.90
61253;DHT22;47127;47.516;8.596;2023-01-29T00:22:23;1.80;99.90
61253;DHT22;47127;47.516;8.596;2023-01-29T00:24:49;1.80;99.90
61253;DHT22;47127;47.516;8.596;2023-01-29T00:27:15;1.80;99.90
61253;DHT22;47127;47.516;8.596;2023-01-29T00:29:40;1.80;99.90
61253;DHT22;47127;47.516;8.596;2023-01-29T00:32:06;1.80;99.90
61253;DHT22;47127;47.516;8.596;2023-01-29T00:34:31;1.80;99.90
61253;DHT22;47127;47.516;8.596;2023-01-29T00:36:57;1.70;99.90
61253;DHT22;47127;47.516;8.596;2023-01-29T00:39:29;1.80;99.90
61253;DHT22;47127;47.516;8.596;2023-01-29T00:42:06;1.70;99.90
61253;DHT22;47127;47.516;8.596;2023-01-29T00:44:50;1.70;99.90
61253;DHT22;47127;47.516;8.596;2023-01-29T00:47:21;1.80;99.90
61253;DHT22;47127;47.516;8.596;2023-01-29T00:50:01;1.80;99.90
61253;DHT22;47127;47.516;8.596;2023-01-29T00:52:27;1.90;99.90
61253;DHT22;47127;47.516;8.596;2023-01-29T00:54:55;1.90;99.90
61253;DHT22;47127;47.516;8.596;2023-01-29T00:57:24;2.00;99.90
61253;DHT22;47127;47.516;8.596;2023-01-29T00:59:51;2.10;99.90
61253;DHT22;47127;47.516;8.596;2023-01-29T01:02:17;2.00;99.90
61253;DHT22;47127;47.516;8.596;2023-01-29T01:05:01;1.90;99.90
61253;DHT22;47127;47.516;8.596;2023-01-29T01:07:28;1.90;99.90
61253;DHT22;47127;47.516;8.596;2023-01-29T01:09:54;1.90;99.90
61253;DHT22;47127;47.516;8.596;2023-01-29T01:12:38;1.90;99.90
61253;DHT22;47127;47.516;8.596;2023-01-29T01:15:04;1.90;99.90
61253;DHT22;47127;47.516;8.596;2023-01-29T01:17:30;1.90;99.90
61253;DHT22;47127;47.516;8.596;2023-01-29T01:19:55;2.00;99.90
61253;DHT22;47127;47.516;8.596;2023-01-29T01:22:21;1.90;99.90
61253;DHT22;47127;47.516;8.596;2023-01-29T01:24:46;1.90;99.90
61253;DHT22;47127;47.516;8.596;2023-01-29T01:27:12;1.90;99.90
61253;DHT22;47127;47.516;8.596;2023-01-29T01:29:38;1.90;99.90
61253;DHT22;47127;47.516;8.596;2023-01-29T01:32:04;1.90;99.90
61253;DHT22;47127;47.516;8.596;2023-01-29T01:34:30;1.90;99.90
61253;DHT22;47127;47.516;8.596;2023-01-29T01:36:56;2.00;99.90
61253;DHT22;47127;47.516;8.596;2023-01-29T01:39:22;1.90;99.90
61253;DHT22;47127;47.516;8.596;2023-01-29T01:41:47;2.00;99.90
61253;DHT22;47127;47.516;8.596;2023-01-29T01:47:21;2.00;99.90
61253;DHT22;47127;47.516;8.596;2023-01-29T01:49:48;2.00;99.90
61253;DHT22;47127;47.516;8.596;2023-01-29T01:52:14;2.00;99.90
61253;DHT22;47127;47.516;8.596;2023-01-29T01:54:42;2.00;99.90
61253;DHT22;47127;47.516;8.596;2023-01-29T01:57:11;2.10;99.90
61253;DHT22;47127;47.516;8.596;2023-01-29T01:59:43;2.10;99.90
61253;DHT22;47127;47.516;8.596;2023-01-29T02:02:11;2.10;99.90
61253;DHT22;47127;47.516;8.596;2023-01-29T02:04:56;2.00;99.90
61253;DHT22;47127;47.516;8.596;2023-01-29T02:07:46;2.00;99.90
61253;DHT22;47127;47.516;8.596;2023-01-29T02:10:37;2.00;99.90
61253;DHT22;47127;47.516;8.596;2023-01-29T02:13:05;2.00;99.90
61253;DHT22;47127;47.516;8.596;2023-01-29T02:15:31;2.00;99.90
61253;DHT22;47127;47.516;8.596;2023-01-29T02:17:57;1.90;99.90
61253;DHT22;47127;47.516;8.596;2023-01-29T02:20:25;2.00;99.90
61253;DHT22;47127;47.516;8.596;2023-01-29T02:29:05;2.10;99.90
61253;DHT22;47127;47.516;8.596;2023-01-29T02:35:09;2.00;99.90
61253;DHT22;47127;47.516;8.596;2023-01-29T02:38:24;2.10;99.90
61253;DHT22;47127;47.516;8.596;2023-01-29T02:40:59;2.10;99.90
61253;DHT22;47127;47.516;8.596;2023-01-29T02:43:47;2.00;99.90
61253;DHT22;47127;47.516;8.596;2023-01-29T02:46:38;2.00;99.90
61253;DHT22;47127;47.516;8.596;2023-01-29T02:54:54;2.00;99.90
61253;DHT22;47127;47.516;8.596;2023-01-29T02:57:36;2.10;99.90
61253;DHT22;47127;47.516;8.596;2023-01-29T03:03:16;2.10;99.90
61253;DHT22;47127;47.516;8.596;2023-01-29T03:08:55;2.10;99.90
61253;DHT22;47127;47.516;8.596;2023-01-29T03:11:22;2.10;99.90
61253;DHT22;47127;47.516;8.596;2023-01-29T03:13:58;2.10;99.90
61253;DHT22;47127;47.516;8.596;2023-01-29T03:16:52;2.00;99.90
61253;DHT22;47127;47.516;8.596;2023-01-29T03:19:23;1.90;99.90
61253;DHT22;47127;47.516;8.596;2023-01-29T03:21:55;2.00;99.90
61253;DHT22;47127;47.516;8.596;2023-01-29T03:27:26;2.00;99.90
61253;DHT22;47127;47.516;8.596;2023-01-29T03:30:13;2.00;99.90
61253;DHT22;47127;47.516;8.596;2023-01-29T03:33:02;2.00;99.90
61253;DHT22;47127;47.516;8.596;2023-01-29T03:35:30;2.00;99.90
61253;DHT22;47127;47.516;8.596;2023-01-29T03:38:07;2.00;99.90
61253;DHT22;47127;47.516;8.596;2023-01-29T03:40:43;2.10;99.90
61253;DHT22;47127;47.516;8.596;2023-01-29T03:43:18;2.10;99.90
61253;DHT22;47127;47.516;8.596;2023-01-29T03:48:32;2.00;99.90
61253;DHT22;47127;47.516;8.596;2023-01-29T03:51:35;2.00;99.90
61253;DHT22;47127;47.516;8.596;2023-01-29T03:54:14;2.00;99.90
61253;DHT22;47127;47.516;8.596;2023-01-29T03:56:56;2.00;99.90
61253;DHT22;47127;47.516;8.596;2023-01-29T03:59:35;2.00;99.90
61253;DHT22;47127;47.516;8.596;2023-01-29T04:02:07;2.00;99.90
61253;DHT22;47127;47.516;8.596;2023-01-29T04:04:37;2.00;99.90
61253;DHT22;47127;47.516;8.596;2023-01-29T04:07:09;2.10;99.90
61253;DHT22;47127;47.516;8.596;2023-01-29T04:09:41;2.00;99.90
61253;DHT22;47127;47.516;8.596;2023-01-29T04:12:11;2.00;99.90
61253;DHT22;47127;47.516;8.596;2023-01-29T04:14:38;2.10;99.90
61253;DHT22;47127;47.516;8.596;2023-01-29T04:17:26;2.20;99.90
61253;DHT22;47127;47.516;8.596;2023-01-29T04:19:54;2.10;99.90
61253;DHT22;47127;47.516;8.596;2023-01-29T04:22:39;2.20;99.90
61253;DHT22;47127;47.516;8.596;2023-01-29T04:25:10;2.20;99.90
61253;DHT22;47127;47.516;8.596;2023-01-29T04:27:52;2.10;99.90
61253;DHT22;47127;47.516;8.596;2023-01-29T04:33:51;2.00;99.90
61253;DHT22;47127;47.516;8.596;2023-01-29T04:39:10;2.10;99.90
61253;DHT22;47127;47.516;8.596;2023-01-29T04:42:04;2.00;99.90
61253;DHT22;47127;47.516;8.596;2023-01-29T04:47:52;2.00;99.90
61253;DHT22;47127;47.516;8.596;2023-01-29T04:53:05;2.10;99.90
61253;DHT22;47127;47.516;8.596;2023-01-29T04:55:50;2.20;99.90
61253;DHT22;47127;47.516;8.596;2023-01-29T04:59:07;2.10;99.90
61253;DHT22;47127;47.516;8.596;2023-01-29T05:01:26;2.20;99.90
61253;DHT22;47127;47.516;8.596;2023-01-29T05:03:55;2.20;99.90
61253;DHT22;47127;47.516;8.596;2023-01-29T05:06:21;2.00;99.90
61253;DHT22;47127;47.516;8.596;2023-01-29T05:08:50;2.10;99.90
61253;DHT22;47127;47.516;8.596;2023-01-29T05:11:17;2.10;99.90
61253;DHT22;47127;47.516;8.596;2023-01-29T05:13:43;2.10;99.90
61253;DHT22;47127;47.516;8.596;2023-01-29T05:16:16;2.10;99.90
61253;DHT22;47127;47.516;8.596;2023-01-29T05:18:43;2.10;99.90
61253;DHT22;47127;47.516;8.596;2023-01-29T05:21:09;2.10;99.90
61253;DHT22;47127;47.516;8.596;2023-01-29T05:23:35;2.10;99.90
61253;DHT22;47127;47.516;8.596;2023-01-29T05:26:01;2.10;99.90
61253;DHT22;47127;47.516;8.596;2023-01-29T05:28:26;2.20;99.90
61253;DHT22;47127;47.516;8.596;2023-01-29T05:30:54;2.20;99.90
61253;DHT22;47127;47.516;8.596;2023-01-29T05:33:21;2.20;99.90
61253;DHT22;47127;47.516;8.596;2023-01-29T05:35:47;2.20;99.90
61253;DHT22;47127;47.516;8.596;2023-01-29T05:38:13;2.20;99.90
61253;DHT22;47127;47.516;8.596;2023-01-29T05:40:39;2.30;99.90
61253;DHT22;47127;47.516;8.596;2023-01-29T05:43:11;2.20;99.90
61253;DHT22;47127;47.516;8.596;2023-01-29T05:45:38;2.20;99.90
61253;DHT22;47127;47.516;8.596;2023-01-29T05:48:04;2.20;99.90
61253;DHT22;47127;47.516;8.596;2023-01-29T05:50:30;2.20;99.90
61253;DHT22;47127;47.516;8.596;2023-01-29T05:52:59;2.20;99.90
61253;DHT22;47127;47.516;8.596;2023-01-29T05:55:26;2.20;99.90
61253;DHT22;47127;47.516;8.596;2023-01-29T05:57:53;2.30;99.90
61253;DHT22;47127;47.516;8.596;2023-01-29T06:00:19;2.30;99.90
61253;DHT22;47127;47.516;8.596;2023-01-29T06:02:45;2.20;99.90
61253;DHT22;47127;47.516;8.596;2023-01-29T06:05:10;2.20;99.90
61253;DHT22;47127;47.516;8.596;2023-01-29T06:07:36;2.30;99.90
61253;DHT22;47127;47.516;8.596;2023-01-29T06:10:04;2.30;99.90
61253;DHT22;47127;47.516;8.596;2023-01-29T06:12:30;2.10;99.90
61253;DHT22;47127;47.516;8.596;2023-01-29T06:14:55;2.20;99.90
61253;DHT22;47127;47.516;8.596;2023-01-29T06:17:21;1.90;99.90
61253;DHT22;47127;47.516;8.596;2023-01-29T06:19:46;2.00;99.90
61253;DHT22;47127;47.516;8.596;2023-01-29T06:22:12;2.00;99.90
61253;DHT22;47127;47.516;8.596;2023-01-29T06:24:37;2.00;99.90
61253;DHT22;47127;47.516;8.596;2023-01-29T06:27:03;2.00;99.90
61253;DHT22;47127;47.516;8.596;2023-01-29T06:29:28;2.00;99.90
61253;DHT22;47127;47.516;8.596;2023-01-29T06:31:54;2.00;99.90
61253;DHT22;47127;47.516;8.596;2023-01-29T06:34:19;2.00;99.90
61253;DHT22;47127;47.516;8.596;2023-01-29T06:36:45;2.10;99.90
61253;DHT22;47127;47.516;8.596;2023-01-29T06:39:10;2.00;99.90
61253;DHT22;47127;47.516;8.596;2023-01-29T06:41:36;2.00;99.90
61253;DHT22;47127;47.516;8.596;2023-01-29T06:44:02;2.00;99.90
61253;DHT22;47127;47.516;8.596;2023-01-29T06:46:28;1.90;99.90
61253;DHT22;47127;47.516;8.596;2023-01-29T06:48:56;1.90;99.90
61253;DHT22;47127;47.516;8.596;2023-01-29T06:51:21;2.10;99.90
61253;DHT22;47127;47.516;8.596;2023-01-29T06:53:47;2.10;99.90
61253;DHT22;47127;47.516;8.596;2023-01-29T06:56:12;2.10;99.90
61253;DHT22;47127;47.516;8.596;2023-01-29T06:58:38;2.20;99.90
61253;DHT22;47127;47.516;8.596;2023-01-29T07:01:08;2.20;99.90
61253;DHT22;47127;47.516;8.596;2023-01-29T07:03:34;2.10;99.90
61253;DHT22;47127;47.516;8.596;2023-01-29T07:06:00;2.10;99.90
61253;DHT22;47127;47.516;8.596;2023-01-29T07:08:26;2.00;99.90
61253;DHT22;47127;47.516;8.596;2023-01-29T07:10:53;1.90;99.90
61253;DHT22;47127;47.516;8.596;2023-01-29T07:13:22;1.90;99.90
61253;DHT22;47127;47.516;8.596;2023-01-29T07:15:47;1.90;99.90
61253;DHT22;47127;47.516;8.596;2023-01-29T07:18:13;2.00;99.90
61253;DHT22;47127;47.516;8.596;2023-01-29T07:20:39;2.10;99.90
61253;DHT22;47127;47.516;8.596;2023-01-29T07:23:05;2.20;99.90
61253;DHT22;47127;47.516;8.596;2023-01-29T07:25:32;2.20;99.90
61253;DHT22;47127;47.516;8.596;2023-01-29T07:28:01;2.10;99.90
61253;DHT22;47127;47.516;8.596;2023-01-29T07:30:27;2.10;99.90
61253;DHT22;47127;47.516;8.596;2023-01-29T07:32:53;2.10;99.90
61253;DHT22;47127;47.516;8.596;2023-01-29T07:35:19;2.10;99.90
61253;DHT22;47127;47.516;8.596;2023-01-29T07:37:48;2.10;99.90
61253;DHT22;47127;47.516;8.596;2023-01-29T07:40:14;2.20;99.90
61253;DHT22;47127;47.516;8.596;2023-01-29T07:42:39;2.10;99.90
61253;DHT22;47127;47.516;8.596;2023-01-29T07:45:08;2.20;99.90
61253;DHT22;47127;47.516;8.596;2023-01-29T07:47:34;2.10;99.90
61253;DHT22;47127;47.516;8.596;2023-01-29T07:50:00;2.00;99.90
61253;DHT22;47127;47.516;8.596;2023-01-29T07:52:25;2.00;99.90
61253;DHT22;47127;47.516;8.596;2023-01-29T07:54:51;2.10;99.90
61253;DHT22;47127;47.516;8.596;2023-01-29T07:57:16;2.10;99.90
61253;DHT22;47127;47.516;8.596;2023-01-29T07:59:42;2.10;99.90
61253;DHT22;47127;47.516;8.596;2023-01-29T08:02:08;2.20;99.90
61253;DHT22;47127;47.516;8.596;2023-01-29T08:04:34;2.20;99.90
61253;DHT22;47127;47.516;8.596;2023-01-29T08:06:59;2.20;99.90
61253;DHT22;47127;47.516;8.596;2023-01-29T08:09:25;2.20;99.90
61253;DHT22;47127;47.516;8.596;2023-01-29T08:11:50;2.10;99.90
61253;DHT22;47127;47.516;8.596;2023-01-29T08:14:16;2.10;99.90
61253;DHT22;47127;47.516;8.596;2023-01-29T08:16:42;2.20;99.90
61253;DHT22;47127;47.516;8.596;2023-01-29T08:19:07;2.20;99.90
61253;DHT22;47127;47.516;8.596;2023-01-29T08:21:33;2.30;99.90
61253;DHT22;47127;47.516;8.596;2023-01-29T08:23:58;2.30;99.90
61253;DHT22;47127;47.516;8.596;2023-01-29T08:26:24;2.30;99.90
61253;DHT22;47127;47.516;8.596;2023-01-29T08:28:51;2.40;99.90
61253;DHT22;47127;47.516;8.596;2023-01-29T08:31:18;2.40;99.90
61253;DHT22;47127;47.516;8.596;2023-01-29T08:33:47;2.40;99.90
61253;DHT22;47127;47.516;8.596;2023-01-29T08:36:12;2.50;99.90
61253;DHT22;47127;47.516;8.596;2023-01-29T08:38:38;2.60;99.90
61253;DHT22;47127;47.516;8.596;2023-01-29T08:41:04;2.50;99.90
61253;DHT22;47127;47.516;8.596;2023-01-29T08:43:30;2.50;99.90
61253;DHT22;47127;47.516;8.596;2023-01-29T08:45:56;2.60;99.90
61253;DHT22;47127;47.516;8.596;2023-01-29T08:48:22;2.60;99.90
61253;DHT22;47127;47.516;8.596;2023-01-29T08:50:48;2.60;99.90
61253;DHT22;47127;47.516;8.596;2023-01-29T08:53:13;2.60;99.90
61253;DHT22;47127;47.516;8.596;2023-01-29T08:55:39;2.70;99.90
61253;DHT22;47127;47.516;8.596;2023-01-29T08:58:06;2.60;99.90
61253;DHT22;47127;47.516;8.596;2023-01-29T09:00:33;2.70;99.90
61253;DHT22;47127;47.516;8.596;2023-01-29T09:02:59;2.70;99.90
61253;DHT22;47127;47.516;8.596;2023-01-29T09:05:25;2.70;99.90
61253;DHT22;47127;47.516;8.596;2023-01-29T09:07:51;2.70;99.90
61253;DHT22;47127;47.516;8.596;2023-01-29T09:10:17;2.60;99.90
61253;DHT22;47127;47.516;8.596;2023-01-29T09:12:42;2.60;99.90
61253;DHT22;47127;47.516;8.596;2023-01-29T09:15:11;2.70;99.90
61253;DHT22;47127;47.516;8.596;2023-01-29T09:17:37;2.80;99.90
61253;DHT22;47127;47.516;8.596;2023-01-29T09:20:03;2.80;99.90
61253;DHT22;47127;47.516;8.596;2023-01-29T09:22:30;2.70;99.90
61253;DHT22;47127;47.516;8.596;2023-01-29T09:24:56;2.80;99.90
61253;DHT22;47127;47.516;8.596;2023-01-29T09:27:22;2.80;99.90
61253;DHT22;47127;47.516;8.596;2023-01-29T09:29:47;2.80;99.90
61253;DHT22;47127;47.516;8.596;2023-01-29T09:32:13;2.90;99.90
61253;DHT22;47127;47.516;8.596;2023-01-29T09:34:38;2.80;99.90
61253;DHT22;47127;47.516;8.596;2023-01-29T09:37:04;2.80;99.90
61253;DHT22;47127;47.516;8.596;2023-01-29T09:39:30;2.90;99.90
61253;DHT22;47127;47.516;8.596;2023-01-29T09:42:08;3.00;99.90
61253;DHT22;47127;47.516;8.596;2023-01-29T09:47:26;2.90;99.90
61253;DHT22;47127;47.516;8.596;2023-01-29T09:49:56;2.90;99.90
61253;DHT22;47127;47.516;8.596;2023-01-29T09:52:25;2.90;99.90
61253;DHT22;47127;47.516;8.596;2023-01-29T09:55:11;3.00;99.90
61253;DHT22;47127;47.516;8.596;2023-01-29T10:01:04;2.90;99.90
61253;DHT22;47127;47.516;8.596;2023-01-29T10:06:30;3.00;99.90
61253;DHT22;47127;47.516;8.596;2023-01-29T10:25:39;3.10;99.90
61253;DHT22;47127;47.516;8.596;2023-01-29T10:28:22;3.00;99.90
61253;DHT22;47127;47.516;8.596;2023-01-29T10:30:50;3.00;99.90
61253;DHT22;47127;47.516;8.596;2023-01-29T10:33:32;3.10;99.90
61253;DHT22;47127;47.516;8.596;2023-01-29T10:36:03;3.10;99.90
61253;DHT22;47127;47.516;8.596;2023-01-29T10:38:42;3.10;99.90
61253;DHT22;47127;47.516;8.596;2023-01-29T10:41:35;3.10;99.90
61253;DHT22;47127;47.516;8.596;2023-01-29T10:52:32;3.10;99.90
61253;DHT22;47127;47.516;8.596;2023-01-29T10:57:47;3.10;99.90
61253;DHT22;47127;47.516;8.596;2023-01-29T11:00:21;3.10;99.90
61253;DHT22;47127;47.516;8.596;2023-01-29T11:02:49;3.20;99.90
61253;DHT22;47127;47.516;8.596;2023-01-29T11:05:30;3.20;99.90
61253;DHT22;47127;47.516;8.596;2023-01-29T11:08:18;3.20;99.90
61253;DHT22;47127;47.516;8.596;2023-01-29T11:13:22;3.30;99.90
61253;DHT22;47127;47.516;8.596;2023-01-29T11:15:51;3.30;99.90
61253;DHT22;47127;47.516;8.596;2023-01-29T11:18:17;3.30;99.90
61253;DHT22;47127;47.516;8.596;2023-01-29T11:20:44;3.30;99.90
61253;DHT22;47127;47.516;8.596;2023-01-29T11:23:28;3.30;99.90
61253;DHT22;47127;47.516;8.596;2023-01-29T11:25:56;3.20;99.90
61253;DHT22;47127;47.516;8.596;2023-01-29T11:28:46;3.20;99.90
61253;DHT22;47127;47.516;8.596;2023-01-29T11:31:20;3.20;99.90
61253;DHT22;47127;47.516;8.596;2023-01-29T11:33:47;3.20;99.90
61253;DHT22;47127;47.516;8.596;2023-01-29T11:36:37;3.20;99.90
61253;DHT22;47127;47.516;8.596;2023-01-29T11:39:17;3.30;99.90
61253;DHT22;47127;47.516;8.596;2023-01-29T11:41:53;3.40;99.90
61253;DHT22;47127;47.516;8.596;2023-01-29T11:44:28;3.40;99.90
61253;DHT22;47127;47.516;8.596;2023-01-29T11:46:55;3.20;99.90
61253;DHT22;47127;47.516;8.596;2023-01-29T11:49:36;3.30;99.90
61253;DHT22;47127;47.516;8.596;2023-01-29T11:52:04;3.30;99.90
61253;DHT22;47127;47.516;8.596;2023-01-29T11:54:56;3.30;99.90
61253;DHT22;47127;47.516;8.596;2023-01-29T11:57:27;3.30;99.90
61253;DHT22;47127;47.516;8.596;2023-01-29T11:59:56;3.30;99.90
61253;DHT22;47127;47.516;8.596;2023-01-29T12:02:28;3.20;99.90
61253;DHT22;47127;47.516;8.596;2023-01-29T12:04:59;3.20;99.90
61253;DHT22;47127;47.516;8.596;2023-01-29T12:07:26;3.30;99.90
61253;DHT22;47127;47.516;8.596;2023-01-29T12:09:54;3.20;99.90
61253;DHT22;47127;47.516;8.596;2023-01-29T12:12:32;3.30;99.90
61253;DHT22;47127;47.516;8.596;2023-01-29T12:15:25;3.30;99.90
61253;DHT22;47127;47.516;8.596;2023-01-29T12:18:02;3.40;99.90
61253;DHT22;47127;47.516;8.596;2023-01-29T12:20:34;3.40;99.90
61253;DHT22;47127;47.516;8.596;2023-01-29T12:23:10;3.40;99.90
61253;DHT22;47127;47.516;8.596;2023-01-29T12:25:55;3.40;99.90
61253;DHT22;47127;47.516;8.596;2023-01-29T12:34:10;3.20;99.90
61253;DHT22;47127;47.516;8.596;2023-01-29T12:36:47;3.30;99.90
61253;DHT22;47127;47.516;8.596;2023-01-29T12:39:18;3.30;99.90
61253;DHT22;47127;47.516;8.596;2023-01-29T12:41:56;3.40;99.90
61253;DHT22;47127;47.516;8.596;2023-01-29T12:44:57;3.40;99.90
61253;DHT22;47127;47.516;8.596;2023-01-29T12:47:33;3.30;99.90
61253;DHT22;47127;47.516;8.596;2023-01-29T12:50:21;3.40;99.90
61253;DHT22;47127;47.516;8.596;2023-01-29T12:52:57;3.40;99.90
61253;DHT22;47127;47.516;8.596;2023-01-29T12:55:28;3.50;99.90
61253;DHT22;47127;47.516;8.596;2023-01-29T12:58:08;3.50;99.90
61253;DHT22;47127;47.516;8.596;2023-01-29T13:00:37;3.50;99.90
61253;DHT22;47127;47.516;8.596;2023-01-29T13:05:46;3.60;99.90
61253;DHT22;47127;47.516;8.596;2023-01-29T13:11:07;3.50;99.90
61253;DHT22;47127;47.516;8.596;2023-01-29T13:13:54;3.40;99.90
61253;DHT22;47127;47.516;8.596;2023-01-29T13:16:24;3.40;99.90
61253;DHT22;47127;47.516;8.596;2023-01-29T13:18:55;3.50;99.90
61253;DHT22;47127;47.516;8.596;2023-01-29T13:21:38;3.50;99.90
61253;DHT22;47127;47.516;8.596;2023-01-29T13:24:20;3.60;99.90
61253;DHT22;47127;47.516;8.596;2023-01-29T13:26:47;3.50;99.90
61253;DHT22;47127;47.516;8.596;2023-01-29T13:29:24;3.50;99.90
61253;DHT22;47127;47.516;8.596;2023-01-29T13:31:59;3.50;99.90
61253;DHT22;47127;47.516;8.596;2023-01-29T13:34:32;3.50;99.90
61253;DHT22;47127;47.516;8.596;2023-01-29T13:37:15;3.40;99.90
61253;DHT22;47127;47.516;8.596;2023-01-29T13:39:47;3.40;99.90
61253;DHT22;47127;47.516;8.596;2023-01-29T13:42:32;3.40;99.90
61253;DHT22;47127;47.516;8.596;2023-01-29T13:45:02;3.20;99.90
61253;DHT22;47127;47.516;8.596;2023-01-29T13:47:34;3.20;99.90
61253;DHT22;47127;47.516;8.596;2023-01-29T13:50:02;3.20;99.90
61253;DHT22;47127;47.516;8.596;2023-01-29T14:00:04;3.40;99.90
61253;DHT22;47127;47.516;8.596;2023-01-29T14:02:30;3.40;99.90
61253;DHT22;47127;47.516;8.596;2023-01-29T14:07:53;3.40;99.90
61253;DHT22;47127;47.516;8.596;2023-01-29T14:10:20;3.30;99.90
61253;DHT22;47127;47.516;8.596;2023-01-29T14:12:49;3.30;99.90
61253;DHT22;47127;47.516;8.596;2023-01-29T14:15:21;3.30;99.90
61253;DHT22;47127;47.516;8.596;2023-01-29T14:18:18;3.40;99.90
61253;DHT22;47127;47.516;8.596;2023-01-29T14:23:45;3.30;99.90
61253;DHT22;47127;47.516;8.596;2023-01-29T14:34:32;3.50;99.90
61253;DHT22;47127;47.516;8.596;2023-01-29T14:39:49;3.40;99.90
61253;DHT22;47127;47.516;8.596;2023-01-29T14:42:32;3.40;99.90
61253;DHT22;47127;47.516;8.596;2023-01-29T14:45:07;3.40;99.90
61253;DHT22;47127;47.516;8.596;2023-01-29T14:50:00;3.40;99.90
61253;DHT22;47127;47.516;8.596;2023-01-29T14:52:38;3.30;99.90
61253;DHT22;47127;47.516;8.596;2023-01-29T14:55:14;3.20;99.90
61253;DHT22;47127;47.516;8.596;2023-01-29T14:57:44;3.30;99.90
61253;DHT22;47127;47.516;8.596;2023-01-29T15:00:32;3.20;99.90
61253;DHT22;47127;47.516;8.596;2023-01-29T15:02:59;3.20;99.90
61253;DHT22;47127;47.516;8.596;2023-01-29T15:05:30;3.30;99.90
61253;DHT22;47127;47.516;8.596;2023-01-29T15:10:46;3.20;99.90
61253;DHT22;47127;47.516;8.596;2023-01-29T15:13:21;3.30;99.90
61253;DHT22;47127;47.516;8.596;2023-01-29T15:15:55;3.40;99.90
61253;DHT22;47127;47.516;8.596;2023-01-29T15:18:37;3.30;99.90
61253;DHT22;47127;47.516;8.596;2023-01-29T15:21:13;3.30;99.90
61253;DHT22;47127;47.516;8.596;2023-01-29T15:23:39;3.40;99.90
61253;DHT22;47127;47.516;8.596;2023-01-29T15:26:11;3.30;99.90
61253;DHT22;47127;47.516;8.596;2023-01-29T15:28:40;3.30;99.90
61253;DHT22;47127;47.516;8.596;2023-01-29T15:31:11;3.20;99.90
61253;DHT22;47127;47.516;8.596;2023-01-29T15:33:40;3.30;99.90
61253;DHT22;47127;47.516;8.596;2023-01-29T15:36:06;3.00;99.90
61253;DHT22;47127;47.516;8.596;2023-01-29T15:38:32;2.90;99.90
61253;DHT22;47127;47.516;8.596;2023-01-29T15:41:12;2.90;99.90
61253;DHT22;47127;47.516;8.596;2023-01-29T15:43:48;2.90;99.90
61253;DHT22;47127;47.516;8.596;2023-01-29T15:46:27;3.00;99.90
61253;DHT22;47127;47.516;8.596;2023-01-29T15:48:56;3.00;99.90
61253;DHT22;47127;47.516;8.596;2023-01-29T15:51:25;2.90;99.90
61253;DHT22;47127;47.516;8.596;2023-01-29T15:53:58;2.90;99.90
61253;DHT22;47127;47.516;8.596;2023-01-29T15:56:28;2.80;99.90
61253;DHT22;47127;47.516;8.596;2023-01-29T15:58:56;2.60;99.90
61253;DHT22;47127;47.516;8.596;2023-01-29T16:01:28;2.70;99.90
61253;DHT22;47127;47.516;8.596;2023-01-29T16:03:55;2.70;99.90
61253;DHT22;47127;47.516;8.596;2023-01-29T16:06:22;2.70;99.90
61253;DHT22;47127;47.516;8.596;2023-01-29T16:08:52;2.80;99.90
61253;DHT22;47127;47.516;8.596;2023-01-29T16:11:19;2.70;99.90
61253;DHT22;47127;47.516;8.596;2023-01-29T16:13:47;2.50;99.90
61253;DHT22;47127;47.516;8.596;2023-01-29T16:18:40;2.60;99.90
61253;DHT22;47127;47.516;8.596;2023-01-29T16:21:15;2.60;99.90
61253;DHT22;47127;47.516;8.596;2023-01-29T16:23:48;2.60;99.90
61253;DHT22;47127;47.516;8.596;2023-01-29T16:26:18;2.60;99.90
61253;DHT22;47127;47.516;8.596;2023-01-29T16:28:45;2.60;99.90
61253;DHT22;47127;47.516;8.596;2023-01-29T16:31:12;2.70;99.90
61253;DHT22;47127;47.516;8.596;2023-01-29T16:33:41;2.70;99.90
61253;DHT22;47127;47.516;8.596;2023-01-29T16:36:22;2.50;99.90
61253;DHT22;47127;47.516;8.596;2023-01-29T16:38:51;2.60;99.90
61253;DHT22;47127;47.516;8.596;2023-01-29T16:43:53;2.60;99.90
61253;DHT22;47127;47.516;8.596;2023-01-29T16:49:09;2.60;99.90
61253;DHT22;47127;47.516;8.596;2023-01-29T16:51:47;2.70;99.90
61253;DHT22;47127;47.516;8.596;2023-01-29T16:54:13;2.60;99.90
61253;DHT22;47127;47.516;8.596;2023-01-29T16:56:49;2.70;99.90
61253;DHT22;47127;47.516;8.596;2023-01-29T16:59:19;2.60;99.90
61253;DHT22;47127;47.516;8.596;2023-01-29T17:01:47;2.50;99.90
61253;DHT22;47127;47.516;8.596;2023-01-29T17:04:16;2.40;99.90
61253;DHT22;47127;47.516;8.596;2023-01-29T17:06:45;2.30;99.90
61253;DHT22;47127;47.516;8.596;2023-01-29T17:09:27;2.40;99.90
61253;DHT22;47127;47.516;8.596;2023-01-29T17:11:56;2.30;99.90
61253;DHT22;47127;47.516;8.596;2023-01-29T17:14:24;2.40;99.90
61253;DHT22;47127;47.516;8.596;2023-01-29T17:16:59;2.40;99.90
61253;DHT22;47127;47.516;8.596;2023-01-29T17:19:26;2.40;99.90
61253;DHT22;47127;47.516;8.596;2023-01-29T17:21:52;2.50;99.90
61253;DHT22;47127;47.516;8.596;2023-01-29T17:24:17;2.50;99.90
61253;DHT22;47127;47.516;8.596;2023-01-29T17:26:43;2.50;99.90
61253;DHT22;47127;47.516;8.596;2023-01-29T17:29:13;2.50;99.90
61253;DHT22;47127;47.516;8.596;2023-01-29T17:31:40;2.60;99.90
61253;DHT22;47127;47.516;8.596;2023-01-29T17:34:13;2.60;99.90
61253;DHT22;47127;47.516;8.596;2023-01-29T17:36:43;2.60;99.90
61253;DHT22;47127;47.516;8.596;2023-01-29T17:39:20;2.50;99.90
61253;DHT22;47127;47.516;8.596;2023-01-29T17:41:55;2.50;99.90
61253;DHT22;47127;47.516;8.596;2023-01-29T17:44:21;2.50;99.90
61253;DHT22;47127;47.516;8.596;2023-01-29T17:46:47;2.40;99.90
61253;DHT22;47127;47.516;8.596;2023-01-29T17:49:24;2.40;99.90
61253;DHT22;47127;47.516;8.596;2023-01-29T17:51:51;2.50;99.90
61253;DHT22;47127;47.516;8.596;2023-01-29T17:54:18;2.50;99.90
61253;DHT22;47127;47.516;8.596;2023-01-29T17:56:43;2.50;99.90
61253;DHT22;47127;47.516;8.596;2023-01-29T17:59:18;2.50;99.90
61253;DHT22;47127;47.516;8.596;2023-01-29T18:01:45;2.50;99.90
61253;DHT22;47127;47.516;8.596;2023-01-29T18:04:11;2.40;99.90
61253;DHT22;47127;47.516;8.596;2023-01-29T18:06:37;2.50;99.90
61253;DHT22;47127;47.516;8.596;2023-01-29T18:09:07;2.50;99.90
61253;DHT22;47127;47.516;8.596;2023-01-29T18:11:34;2.60;99.90
61253;DHT22;47127;47.516;8.596;2023-01-29T18:14:00;2.50;99.90
61253;DHT22;47127;47.516;8.596;2023-01-29T18:16:26;2.50;99.90
61253;DHT22;47127;47.516;8.596;2023-01-29T18:18:52;2.40;99.90